Time;durP1;ratioP1;P1;durP2;ratioP2;P2;SDS_P1;SDS_P2;PMS_P1;PMS_P2;Temp;Humidity;BMP_temperature;BMP_pressure;BME280_temperature;BME280_humidity;BME280_pressure;Samples;Min_cycle;Max_cycle;Signal;HPM_P1;HPM_P2
2021/03/15 00:01:31;;;;;;;6.07;4.20;;;;;;;;;;4894787;29;21228;-71
2021/03/15 00:04:35;;;;;;;6.30;3.93;;;;;;;;;;4888736;29;20594;-71
2021/03/15 00:07:40;;;;;;;6.47;4.63;;;;;;;;;;4899505;29;20558;-71
2021/03/15 00:10:44;;;;;;;6.43;5.20;;;;;;;;;;4881973;29;20622;-72
2021/03/15 00:13:49;;;;;;;5.67;4.63;;;;;;;;;;4883117;29;20602;-71
2021/03/15 00:16:53;;;;;;;4.67;4.20;;;;;;;;;;4882739;29;20555;-71
2021/03/15 00:19:57;;;;;;;6.23;4.60;;;;;;;;;;4881337;29;20610;-72
2021/03/15 00:23:01;;;;;;;6.37;4.50;;;;;;;;;;4890655;29;20657;-72
2021/03/15 00:26:05;;;;;;;5.97;4.57;;;;;;;;;;4900030;29;20558;-72
2021/03/15 00:29:10;;;;;;;5.37;4.70;;;;;;;;;;4884531;29;20587;-71
2021/03/15 00:32:14;;;;;;;6.50;4.97;;;;;;;;;;4882910;29;20650;-71
2021/03/15 00:35:19;;;;;;;6.00;4.53;;;;;;;;;;4898667;29;20594;-71
2021/03/15 00:38:23;;;;;;;6.87;5.00;;;;;;;;;;4883492;29;21156;-71
2021/03/15 00:41:27;;;;;;;5.77;4.93;;;;;;;;;;4896181;29;20665;-72
2021/03/15 00:44:32;;;;;;;6.90;5.40;;;;;;;;;;4898366;29;20601;-71
2021/03/15 00:47:36;;;;;;;5.67;4.63;;;;;;;;;;4884909;29;20593;-71
2021/03/15 00:50:41;;;;;;;5.43;4.60;;;;;;;;;;4883494;29;20641;-71
2021/03/15 00:53:49;;;;;;;6.80;5.03;;;;;;;;;;4898738;29;20899;-72
2021/03/15 00:56:53;;;;;;;6.47;4.73;;;;;;;;;;4865685;29;20595;-71
2021/03/15 00:59:58;;;;;;;6.13;5.20;;;;;;;;;;4881240;29;20547;-72
2021/03/15 01:03:04;;;;;;;7.47;5.07;;;;;;;;;;4880305;29;20540;-72
2021/03/15 01:06:11;;;;;;;5.80;5.00;;;;;;;;;;4880004;29;20630;-72
2021/03/15 01:09:18;;;;;;;6.43;5.50;;;;;;;;;;4889092;29;20594;-71
2021/03/15 01:12:30;;;;;;;6.23;5.43;;;;;;;;;;4890435;29;20552;-72
2021/03/15 01:15:38;;;;;;;8.73;5.27;;;;;;;;;;4880886;29;20947;-72
2021/03/15 01:18:43;;;;;;;6.33;5.30;;;;;;;;;;4881025;29;20607;-71
2021/03/15 01:21:48;;;;;;;7.00;5.67;;;;;;;;;;4894358;29;20674;-71
2021/03/15 01:24:52;;;;;;;6.47;5.30;;;;;;;;;;4898752;29;20601;-71
2021/03/15 01:27:57;;;;;;;6.83;5.50;;;;;;;;;;4898950;29;20566;-71
2021/03/15 01:31:02;;;;;;;6.87;4.93;;;;;;;;;;4892528;29;21220;-71
2021/03/15 01:34:06;;;;;;;6.93;5.23;;;;;;;;;;4882318;29;20594;-70
2021/03/15 01:37:10;;;;;;;6.13;5.23;;;;;;;;;;4882926;29;20593;-70
2021/03/15 01:40:15;;;;;;;6.33;4.90;;;;;;;;;;4893221;29;20615;-71
2021/03/15 01:43:19;;;;;;;6.37;5.50;;;;;;;;;;4880198;29;20872;-71
2021/03/15 01:46:23;;;;;;;9.33;6.10;;;;;;;;;;4886523;29;20589;-70
2021/03/15 01:49:27;;;;;;;7.23;5.70;;;;;;;;;;4885311;29;20623;-70
2021/03/15 01:52:34;;;;;;;9.73;6.60;;;;;;;;;;4893412;29;20625;-70
2021/03/15 01:55:38;;;;;;;8.47;6.00;;;;;;;;;;4895478;29;20625;-71
2021/03/15 01:58:44;;;;;;;8.87;5.97;;;;;;;;;;4896914;29;20597;-70
2021/03/15 02:01:48;;;;;;;7.87;6.03;;;;;;;;;;4885907;29;20666;-71
2021/03/15 02:04:53;;;;;;;7.73;5.90;;;;;;;;;;4882694;29;20645;-70
2021/03/15 02:07:57;;;;;;;8.00;5.87;;;;;;;;;;4892417;29;20610;-70
2021/03/15 02:11:11;;;;;;;7.57;5.83;;;;;;;;;;4892022;29;20646;-70
2021/03/15 02:14:27;;;;;;;11.20;6.77;;;;;;;;;;4898431;29;20594;-71
2021/03/15 02:18:03;;;;;;;7.33;6.23;;;;;;;;;;4894495;29;20591;-70
2021/03/15 02:22:00;;;;;;;10.13;6.20;;;;;;;;;;4881419;29;20671;-70
2021/03/15 02:25:14;;;;;;;10.17;6.90;;;;;;;;;;4879123;29;20554;-71
2021/03/15 02:28:37;;;;;;;11.57;7.23;;;;;;;;;;4876554;29;20618;-70
2021/03/15 02:31:47;;;;;;;9.07;6.00;;;;;;;;;;4885388;29;21228;-70
2021/03/15 02:35:06;;;;;;;9.37;6.90;;;;;;;;;;4886172;29;20587;-71
2021/03/15 02:38:12;;;;;;;9.13;6.83;;;;;;;;;;4892401;29;20594;-70
2021/03/15 02:41:19;;;;;;;8.53;6.97;;;;;;;;;;4892806;29;21219;-71
2021/03/15 02:44:23;;;;;;;8.63;6.57;;;;;;;;;;4904221;29;20598;-71
2021/03/15 02:47:28;;;;;;;8.80;6.50;;;;;;;;;;4901273;29;20601;-70
2021/03/15 02:50:34;;;;;;;8.40;6.87;;;;;;;;;;4884546;29;20626;-71
2021/03/15 02:53:40;;;;;;;9.37;7.37;;;;;;;;;;4884870;29;20543;-71
2021/03/15 02:56:47;;;;;;;9.67;6.83;;;;;;;;;;4890269;29;20601;-71
2021/03/15 02:59:54;;;;;;;9.30;6.67;;;;;;;;;;4902558;29;20589;-70
2021/03/15 03:03:00;;;;;;;11.37;6.53;;;;;;;;;;4898869;29;20638;-70
2021/03/15 03:06:05;;;;;;;10.43;6.87;;;;;;;;;;4896482;29;20637;-70
2021/03/15 03:09:13;;;;;;;12.87;7.20;;;;;;;;;;4888845;29;20579;-70
2021/03/15 03:12:18;;;;;;;11.50;7.40;;;;;;;;;;4888736;29;20634;-71
2021/03/15 03:15:27;;;;;;;11.63;6.80;;;;;;;;;;4898610;29;20605;-71
2021/03/15 03:18:32;;;;;;;8.13;6.17;;;;;;;;;;4894751;29;20599;-70
2021/03/15 03:21:39;;;;;;;10.23;6.37;;;;;;;;;;4885029;29;20654;-71
2021/03/15 03:24:45;;;;;;;11.00;6.40;;;;;;;;;;4885677;29;20929;-71
2021/03/15 03:27:56;;;;;;;8.37;6.20;;;;;;;;;;4884546;29;20603;-70
2021/03/15 03:31:03;;;;;;;8.13;6.27;;;;;;;;;;4897810;29;20645;-71
2021/03/15 03:34:08;;;;;;;7.60;6.30;;;;;;;;;;4903501;29;21164;-70
2021/03/15 03:37:12;;;;;;;8.30;6.13;;;;;;;;;;4904021;29;20890;-71
2021/03/15 03:40:18;;;;;;;8.73;6.60;;;;;;;;;;4900176;29;20585;-71
2021/03/15 03:43:23;;;;;;;9.10;6.00;;;;;;;;;;4895942;29;20630;-70
2021/03/15 03:46:27;;;;;;;9.97;6.23;;;;;;;;;;4897339;29;20918;-71
2021/03/15 03:49:31;;;;;;;9.57;6.00;;;;;;;;;;4899831;29;20942;-70
2021/03/15 03:52:37;;;;;;;8.27;6.13;;;;;;;;;;4900352;29;20590;-70
2021/03/15 03:55:59;;;;;;;9.60;5.83;;;;;;;;;;4900032;29;20887;-71
2021/03/15 03:59:04;;;;;;;8.73;5.70;;;;;;;;;;4889061;29;21145;-70
2021/03/15 04:02:11;;;;;;;9.13;5.47;;;;;;;;;;4885058;29;20658;-70
2021/03/15 04:05:27;;;;;;;7.80;5.20;;;;;;;;;;4882875;29;20638;-70
2021/03/15 04:08:41;;;;;;;7.70;5.17;;;;;;;;;;4878344;29;20589;-71
2021/03/15 04:11:48;;;;;;;6.33;4.90;;;;;;;;;;4900249;29;20621;-71
2021/03/15 04:14:54;;;;;;;8.47;5.10;;;;;;;;;;4888954;29;20622;-71
2021/03/15 04:18:02;;;;;;;6.03;4.23;;;;;;;;;;4881351;29;20606;-71
2021/03/15 04:21:07;;;;;;;6.37;4.20;;;;;;;;;;4881543;29;20623;-71
2021/03/15 04:24:18;;;;;;;6.40;4.20;;;;;;;;;;4892618;29;21146;-70
2021/03/15 04:28:16;;;;;;;6.33;4.40;;;;;;;;;;4865985;29;20631;-70
2021/03/15 04:31:23;;;;;;;4.97;4.10;;;;;;;;;;4895194;29;20662;-71
2021/03/15 04:34:30;;;;;;;4.67;3.97;;;;;;;;;;4899724;29;20574;-71
2021/03/15 04:37:36;;;;;;;6.20;4.50;;;;;;;;;;4899502;29;20574;-71
2021/03/15 04:40:45;;;;;;;5.80;4.37;;;;;;;;;;4902769;29;20661;-71
2021/03/15 04:43:49;;;;;;;7.30;4.03;;;;;;;;;;4896377;29;20643;-71
2021/03/15 04:46:54;;;;;;;5.40;4.63;;;;;;;;;;4897989;29;20597;-71
2021/03/15 04:49:59;;;;;;;7.03;4.53;;;;;;;;;;4899209;29;20613;-71
2021/03/15 04:53:04;;;;;;;5.50;4.27;;;;;;;;;;4868992;29;20599;-71
2021/03/15 04:56:12;;;;;;;7.17;4.67;;;;;;;;;;4881180;29;20547;-72
2021/03/15 04:59:18;;;;;;;5.20;3.90;;;;;;;;;;4887975;29;20594;-72
2021/03/15 05:02:22;;;;;;;8.07;4.50;;;;;;;;;;4898775;29;20665;-72
2021/03/15 05:05:27;;;;;;;6.23;4.57;;;;;;;;;;4898148;29;20982;-72
2021/03/15 05:08:34;;;;;;;5.97;4.13;;;;;;;;;;4896398;29;20642;-71
2021/03/15 05:11:41;;;;;;;5.13;3.93;;;;;;;;;;4888712;29;20658;-72
2021/03/15 05:14:46;;;;;;;5.47;3.90;;;;;;;;;;4889591;29;20602;-71
2021/03/15 05:17:50;;;;;;;5.37;4.40;;;;;;;;;;4900928;23;20591;-72
2021/03/15 05:20:54;;;;;;;6.47;4.73;;;;;;;;;;4904409;29;20648;-71
2021/03/15 05:23:59;;;;;;;6.23;4.30;;;;;;;;;;4892427;29;20979;-72
2021/03/15 05:27:05;;;;;;;5.93;4.53;;;;;;;;;;4884743;29;20946;-71
2021/03/15 05:30:12;;;;;;;7.33;4.67;;;;;;;;;;4880065;29;20555;-72
2021/03/15 05:33:19;;;;;;;8.23;4.70;;;;;;;;;;4879392;29;20551;-71
2021/03/15 05:36:25;;;;;;;6.43;5.13;;;;;;;;;;4880565;29;20629;-71
2021/03/15 05:39:30;;;;;;;6.30;4.30;;;;;;;;;;4888321;29;20594;-71
2021/03/15 05:42:33;;;;;;;5.90;4.53;;;;;;;;;;4897836;29;20613;-71
2021/03/15 05:46:01;;;;;;;5.60;4.33;;;;;;;;;;4889175;29;20610;-71
2021/03/15 05:49:25;;;;;;;7.27;4.40;;;;;;;;;;4879813;29;20903;-71
2021/03/15 05:53:10;;;;;;;8.27;4.93;;;;;;;;;;4894426;29;20590;-71
2021/03/15 05:56:35;;;;;;;7.10;4.23;;;;;;;;;;4877820;29;20983;-71
2021/03/15 05:59:52;;;;;;;7.20;4.43;;;;;;;;;;4888474;29;20951;-71
2021/03/15 06:03:36;;;;;;;6.80;4.23;;;;;;;;;;4883965;29;20658;-70
2021/03/15 06:06:42;;;;;;;10.10;7.67;;;;;;;;;;4879433;29;20606;-72
2021/03/15 06:09:55;;;;;;;9.00;6.60;;;;;;;;;;4885879;29;20583;-72
2021/03/15 06:13:10;;;;;;;6.90;5.53;;;;;;;;;;4881247;29;20547;-71
2021/03/15 06:16:15;;;;;;;9.57;5.57;;;;;;;;;;4889711;29;20598;-71
2021/03/15 06:19:20;;;;;;;14.67;10.07;;;;;;;;;;4888014;29;20644;-70
2021/03/15 06:22:24;;;;;;;7.83;5.83;;;;;;;;;;4897035;29;20669;-71
2021/03/15 06:25:29;;;;;;;6.43;5.73;;;;;;;;;;4892238;29;20594;-70
2021/03/15 06:28:34;;;;;;;8.67;6.07;;;;;;;;;;4897528;29;20558;-71
2021/03/15 06:31:41;;;;;;;6.63;4.40;;;;;;;;;;4886639;29;20658;-70
2021/03/15 06:34:46;;;;;;;5.47;4.80;;;;;;;;;;4886550;29;20601;-70
2021/03/15 06:37:52;;;;;;;8.83;6.33;;;;;;;;;;4897583;29;20601;-71
2021/03/15 06:41:03;;;;;;;7.80;6.50;;;;;;;;;;4880792;29;20650;-70
2021/03/15 06:44:09;;;;;;;8.13;5.27;;;;;;;;;;4882718;29;20618;-72
2021/03/15 06:47:15;;;;;;;5.13;4.10;;;;;;;;;;4897313;29;20562;-72
2021/03/15 06:50:19;;;;;;;8.47;3.90;;;;;;;;;;4896964;29;20954;-71
2021/03/15 06:53:24;;;;;;;6.43;3.87;;;;;;;;;;4898063;29;20601;-71
2021/03/15 06:56:28;;;;;;;4.00;3.30;;;;;;;;;;4879116;29;21145;-70
2021/03/15 06:59:55;;;;;;;5.63;3.70;;;;;;;;;;4879388;29;20550;-72
2021/03/15 07:03:03;;;;;;;5.60;4.00;;;;;;;;;;4885983;29;20829;-70
2021/03/15 07:06:08;;;;;;;7.97;4.00;;;;;;;;;;4879038;29;20548;-71
2021/03/15 07:09:14;;;;;;;5.57;3.50;;;;;;;;;;4879018;29;20547;-71
2021/03/15 07:12:20;;;;;;;5.83;3.50;;;;;;;;;;4888829;29;20646;-71
2021/03/15 07:15:32;;;;;;;6.30;3.17;;;;;;;;;;4889912;29;21151;-72
2021/03/15 07:18:37;;;;;;;4.67;3.27;;;;;;;;;;4900206;29;20609;-73
2021/03/15 07:21:41;;;;;;;4.27;3.30;;;;;;;;;;4901358;29;20629;-72
2021/03/15 07:25:06;;;;;;;7.03;3.20;;;;;;;;;;4887330;29;20670;-72
2021/03/15 07:28:10;;;;;;;5.17;2.87;;;;;;;;;;4893339;29;20590;-72
2021/03/15 07:31:20;;;;;;;5.70;2.97;;;;;;;;;;4900419;29;20637;-73
2021/03/15 07:34:25;;;;;;;3.63;2.57;;;;;;;;;;4890163;29;20595;-72
2021/03/15 07:37:29;;;;;;;3.73;2.70;;;;;;;;;;4891023;29;20591;-71
2021/03/15 07:40:45;;;;;;;4.30;3.00;;;;;;;;;;4898668;29;20637;-72
2021/03/15 07:43:51;;;;;;;3.57;2.70;;;;;;;;;;4900779;29;20614;-73
2021/03/15 07:46:57;;;;;;;4.80;2.80;;;;;;;;;;4898377;29;20613;-71
2021/03/15 07:50:02;;;;;;;4.63;2.70;;;;;;;;;;4891829;29;20601;-72
2021/03/15 07:53:07;;;;;;;7.23;2.57;;;;;;;;;;4881116;29;20539;-72
2021/03/15 07:56:20;;;;;;;5.77;2.67;;;;;;;;;;4881031;29;20602;-73
2021/03/15 07:59:24;;;;;;;3.40;2.20;;;;;;;;;;4894583;29;20590;-72
2021/03/15 08:02:30;;;;;;;3.07;2.13;;;;;;;;;;4893425;29;20934;-72
2021/03/15 08:05:34;;;;;;;3.23;2.27;;;;;;;;;;4884922;29;20610;-72
2021/03/15 08:08:40;;;;;;;2.43;2.00;;;;;;;;;;4900000;29;21152;-72
2021/03/15 08:11:44;;;;;;;3.43;2.20;;;;;;;;;;4891069;29;20661;-72
2021/03/15 08:14:51;;;;;;;3.57;2.10;;;;;;;;;;4881077;29;20547;-73
2021/03/15 08:17:56;;;;;;;3.47;2.20;;;;;;;;;;4880676;29;20202;-73
2021/03/15 08:21:03;;;;;;;3.13;2.03;;;;;;;;;;4882957;29;21244;-72
2021/03/15 08:24:08;;;;;;;3.23;1.93;;;;;;;;;;4888493;29;20226;-72
2021/03/15 08:27:14;;;;;;;4.70;1.57;;;;;;;;;;4881203;29;20183;-72
2021/03/15 08:30:23;;;;;;;3.47;2.50;;;;;;;;;;4881509;29;20209;-72
2021/03/15 08:33:28;;;;;;;4.73;2.33;;;;;;;;;;4891021;29;20198;-71
2021/03/15 08:36:44;;;;;;;4.00;2.10;;;;;;;;;;4899406;29;20657;-72
2021/03/15 08:39:48;;;;;;;3.47;1.80;;;;;;;;;;4899441;29;20197;-72
2021/03/15 08:43:18;;;;;;;4.67;2.03;;;;;;;;;;4899902;29;20193;-73
2021/03/15 08:46:22;;;;;;;8.10;2.00;;;;;;;;;;4881619;29;20194;-73
2021/03/15 08:49:30;;;;;;;2.97;1.80;;;;;;;;;;4882029;29;20190;-72
2021/03/15 08:52:35;;;;;;;5.77;2.50;;;;;;;;;;4885735;29;20190;-72
2021/03/15 08:55:42;;;;;;;4.37;2.50;;;;;;;;;;4891994;29;20534;-72
2021/03/15 08:58:51;;;;;;;3.87;2.30;;;;;;;;;;4895155;29;20191;-72
2021/03/15 09:01:59;;;;;;;3.17;2.23;;;;;;;;;;4883383;29;20218;-72
2021/03/15 09:05:26;;;;;;;3.13;2.43;;;;;;;;;;4888140;29;20230;-73
2021/03/15 09:08:59;;;;;;;4.10;2.80;;;;;;;;;;4885157;29;20653;-73
2021/03/15 09:12:04;;;;;;;5.27;3.50;;;;;;;;;;4899301;29;20222;-73
2021/03/15 09:15:08;;;;;;;4.20;2.87;;;;;;;;;;4898993;29;20194;-73
2021/03/15 09:18:37;;;;;;;3.37;3.07;;;;;;;;;;4899091;29;20208;-73
2021/03/15 09:21:47;;;;;;;4.50;2.70;;;;;;;;;;4898161;29;20213;-74
2021/03/15 09:25:01;;;;;;;3.47;2.60;;;;;;;;;;4891774;29;20222;-72
2021/03/15 09:28:07;;;;;;;4.43;3.20;;;;;;;;;;4880221;29;20198;-73
2021/03/15 09:31:11;;;;;;;16.87;9.23;;;;;;;;;;4890527;29;20217;-73
2021/03/15 09:34:16;;;;;;;9.37;6.60;;;;;;;;;;4896017;29;20201;-72
2021/03/15 09:37:20;;;;;;;8.10;5.80;;;;;;;;;;4880330;29;20206;-73
2021/03/15 09:40:26;;;;;;;12.50;8.70;;;;;;;;;;4879296;29;20681;-73
2021/03/15 09:43:32;;;;;;;3.97;3.47;;;;;;;;;;4893528;29;20248;-72
2021/03/15 09:46:37;;;;;;;4.10;3.07;;;;;;;;;;4880884;29;20206;-72
2021/03/15 09:49:43;;;;;;;2.77;2.47;;;;;;;;;;4887098;29;20209;-74
2021/03/15 09:53:09;;;;;;;2.60;2.40;;;;;;;;;;4896219;29;20915;-72
2021/03/15 09:56:14;;;;;;;3.90;2.30;;;;;;;;;;4880103;29;20198;-71
2021/03/15 09:59:26;;;;;;;2.63;1.60;;;;;;;;;;4879209;29;20547;-71
2021/03/15 10:02:34;;;;;;;1.33;1.20;;;;;;;;;;4889216;29;20602;-70
2021/03/15 10:05:59;;;;;;;1.30;1.20;;;;;;;;;;4890343;29;20194;-70
2021/03/15 10:09:23;;;;;;;1.47;1.30;;;;;;;;;;4893016;29;20214;-72
2021/03/15 10:12:49;;;;;;;1.83;1.07;;;;;;;;;;4879609;29;20194;-71
2021/03/15 10:16:10;;;;;;;1.20;1.10;;;;;;;;;;4878783;29;20201;-71
2021/03/15 10:19:33;;;;;;;1.10;1.00;;;;;;;;;;4896727;29;20210;-71
2021/03/15 10:22:38;;;;;;;5.97;4.73;;;;;;;;;;4878806;29;20182;-71
2021/03/15 10:26:03;;;;;;;1.87;1.20;;;;;;;;;;4878401;29;20218;-70
2021/03/15 10:29:21;;;;;;;1.10;1.00;;;;;;;;;;4869821;29;20182;-71
2021/03/15 10:32:29;;;;;;;1.00;1.00;;;;;;;;;;4878770;29;20182;-71
2021/03/15 10:35:35;;;;;;;2.43;1.30;;;;;;;;;;4879806;29;20194;-71
2021/03/15 10:38:50;;;;;;;0.83;0.83;;;;;;;;;;4878447;29;20535;-71
2021/03/15 10:41:57;;;;;;;1.10;0.90;;;;;;;;;;4878341;29;20230;-71
2021/03/15 10:45:08;;;;;;;1.00;0.90;;;;;;;;;;4883270;29;20213;-70
2021/03/15 10:48:14;;;;;;;2.00;1.90;;;;;;;;;;4897320;29;20206;-71
2021/03/15 10:51:41;;;;;;;2.00;1.60;;;;;;;;;;4898874;29;20217;-71
2021/03/15 10:54:55;;;;;;;0.97;0.97;;;;;;;;;;4894859;29;20190;-71
2021/03/15 10:58:09;;;;;;;1.10;0.90;;;;;;;;;;4901905;29;20185;-71
2021/03/15 11:01:21;;;;;;;3.53;1.00;;;;;;;;;;4900921;29;20229;-71
2021/03/15 11:04:40;;;;;;;1.43;1.00;;;;;;;;;;4901121;29;20214;-71
2021/03/15 11:07:56;;;;;;;0.90;0.73;;;;;;;;;;4882008;29;20649;-71
2021/03/15 11:11:27;;;;;;;0.80;0.73;;;;;;;;;;4881806;29;20689;-72
2021/03/15 11:14:39;;;;;;;1.10;1.00;;;;;;;;;;4882520;29;20190;-72
2021/03/15 11:17:59;;;;;;;1.00;0.90;;;;;;;;;;4873380;29;20206;-72
2021/03/15 11:21:09;;;;;;;0.97;0.90;;;;;;;;;;4921604;23;20237;-74
2021/03/15 11:24:34;;;;;;;1.03;0.90;;;;;;;;;;4901938;29;20213;-73
2021/03/15 11:28:04;;;;;;;1.00;0.70;;;;;;;;;;4919064;29;20541;-74
2021/03/15 11:31:14;;;;;;;0.70;0.70;;;;;;;;;;4918985;29;20572;-73
2021/03/15 11:34:26;;;;;;;0.73;0.70;;;;;;;;;;4904186;29;20209;-74
2021/03/15 11:42:33;;;;;;;0.80;0.67;;;;;;;;;;4900291;29;20213;-74
2021/03/15 11:45:40;;;;;;;1.47;0.83;;;;;;;;;;4900652;29;20209;-73
2021/03/15 11:48:46;;;;;;;7.20;4.80;;;;;;;;;;4899956;29;20185;-73
2021/03/15 11:52:01;;;;;;;4.83;2.80;;;;;;;;;;4899890;29;20225;-73
2021/03/15 11:55:15;;;;;;;5.87;3.57;;;;;;;;;;4900859;29;20189;-74
2021/03/15 11:58:20;;;;;;;4.70;2.73;;;;;;;;;;4899852;29;20198;-74
2021/03/15 12:01:26;;;;;;;1.10;1.00;;;;;;;;;;4914574;29;20572;-74
2021/03/15 12:04:31;;;;;;;0.90;0.90;;;;;;;;;;4906322;29;20637;-74
2021/03/15 12:07:40;;;;;;;1.10;0.90;;;;;;;;;;4899855;29;20185;-74
2021/03/15 12:10:44;;;;;;;0.70;0.60;;;;;;;;;;4910418;29;20232;-74
2021/03/15 12:13:52;;;;;;;0.70;0.70;;;;;;;;;;4918334;29;20545;-74
2021/03/15 12:16:58;;;;;;;0.90;0.90;;;;;;;;;;4907387;29;20601;-73
2021/03/15 12:20:06;;;;;;;0.80;0.80;;;;;;;;;;4910653;29;20206;-74
2021/03/15 12:23:36;;;;;;;1.00;1.00;;;;;;;;;;4900133;29;20206;-73
2021/03/15 12:26:40;;;;;;;1.07;1.00;;;;;;;;;;4899236;29;20181;-73
2021/03/15 12:29:51;;;;;;;0.83;0.80;;;;;;;;;;4896743;29;20197;-73
2021/03/15 12:32:55;;;;;;;1.20;1.10;;;;;;;;;;4918112;29;20193;-73
2021/03/15 12:36:01;;;;;;;2.50;1.10;;;;;;;;;;4899704;29;20205;-73
2021/03/15 12:39:05;;;;;;;1.17;1.10;;;;;;;;;;4900557;29;20660;-73
2021/03/15 12:42:18;;;;;;;1.23;1.13;;;;;;;;;;4907501;29;20224;-73
2021/03/15 12:45:34;;;;;;;1.40;1.30;;;;;;;;;;4900929;29;20214;-74
2021/03/15 12:48:40;;;;;;;1.60;1.50;;;;;;;;;;4914263;29;20193;-73
2021/03/15 12:51:45;;;;;;;1.33;1.23;;;;;;;;;;4917298;29;20228;-73
2021/03/15 12:54:49;;;;;;;2.03;1.30;;;;;;;;;;4917788;29;20189;-73
2021/03/15 12:57:53;;;;;;;1.10;1.00;;;;;;;;;;4909391;29;20659;-73
2021/03/15 13:00:58;;;;;;;2.07;1.77;;;;;;;;;;4906866;29;20636;-73
2021/03/15 13:04:06;;;;;;;1.50;1.40;;;;;;;;;;4915852;29;20184;-73
2021/03/15 13:07:14;;;;;;;1.60;1.50;;;;;;;;;;4892033;29;20197;-73
2021/03/15 13:10:27;;;;;;;3.90;2.93;;;;;;;;;;4888719;29;20225;-73
2021/03/15 13:13:34;;;;;;;5.97;4.97;;;;;;;;;;4905661;29;20201;-73
2021/03/15 13:16:38;;;;;;;2.13;1.93;;;;;;;;;;4911201;29;20185;-73
2021/03/15 13:19:42;;;;;;;2.90;1.60;;;;;;;;;;4898616;29;20190;-73
2021/03/15 13:22:47;;;;;;;1.70;1.60;;;;;;;;;;4898443;29;20201;-73
2021/03/15 13:25:59;;;;;;;2.00;1.80;;;;;;;;;;4917447;29;20221;-73
2021/03/15 13:29:11;;;;;;;1.30;1.20;;;;;;;;;;4898419;29;20194;-73
2021/03/15 13:32:16;;;;;;;2.27;1.57;;;;;;;;;;4912066;29;20225;-73
2021/03/15 13:35:21;;;;;;;1.83;1.20;;;;;;;;;;4914634;29;20193;-73
2021/03/15 13:38:29;;;;;;;1.50;1.17;;;;;;;;;;4897940;29;20213;-73
2021/03/15 13:41:37;;;;;;;1.30;1.10;;;;;;;;;;4898943;29;20553;-73
2021/03/15 13:44:54;;;;;;;2.00;1.70;;;;;;;;;;4897851;29;20570;-73
2021/03/15 13:47:59;;;;;;;1.23;1.13;;;;;;;;;;4887906;29;20197;-74
2021/03/15 13:51:07;;;;;;;2.57;1.90;;;;;;;;;;4899780;29;20221;-74
2021/03/15 13:54:14;;;;;;;2.70;1.30;;;;;;;;;;4898862;29;20538;-73
2021/03/15 13:57:19;;;;;;;3.63;2.00;;;;;;;;;;4907795;29;20193;-74
2021/03/15 14:00:44;;;;;;;3.30;2.50;;;;;;;;;;4917135;29;20224;-74
2021/03/15 14:04:14;;;;;;;2.07;1.87;;;;;;;;;;4910862;29;20609;-74
2021/03/15 14:07:28;;;;;;;2.60;2.40;;;;;;;;;;4905805;29;20185;-73
2021/03/15 14:10:41;;;;;;;2.73;2.47;;;;;;;;;;4912562;29;20652;-74
2021/03/15 14:13:51;;;;;;;1.37;1.27;;;;;;;;;;4888468;29;20976;-73
2021/03/15 14:16:56;;;;;;;1.60;1.50;;;;;;;;;;4902032;29;20574;-74
2021/03/15 14:20:04;;;;;;;1.50;1.40;;;;;;;;;;4897312;29;20622;-74
2021/03/15 14:23:09;;;;;;;0.80;0.80;;;;;;;;;;4908907;29;20605;-74
2021/03/15 14:26:15;;;;;;;0.77;0.77;;;;;;;;;;4912960;29;20637;-74
2021/03/15 14:29:30;;;;;;;2.20;1.30;;;;;;;;;;4897518;29;20888;-74
2021/03/15 14:32:44;;;;;;;1.60;1.30;;;;;;;;;;4897383;29;20566;-74
2021/03/15 14:35:54;;;;;;;1.10;1.00;;;;;;;;;;4901092;29;20585;-74
2021/03/15 14:39:07;;;;;;;1.53;1.20;;;;;;;;;;4916050;29;20545;-73
2021/03/15 14:42:13;;;;;;;1.47;1.13;;;;;;;;;;4916099;29;21210;-74
2021/03/15 14:45:18;;;;;;;3.67;1.10;;;;;;;;;;4907092;29;20217;-74
2021/03/15 14:48:28;;;;;;;1.53;1.20;;;;;;;;;;4897219;29;20182;-73
2021/03/15 14:51:37;;;;;;;2.07;1.63;;;;;;;;;;4897271;29;20217;-73
2021/03/15 14:54:45;;;;;;;1.20;1.10;;;;;;;;;;4901488;29;20201;-73
2021/03/15 14:57:55;;;;;;;1.63;1.53;;;;;;;;;;4907896;29;20665;-74
2021/03/15 15:01:03;;;;;;;1.97;1.70;;;;;;;;;;4913997;29;20216;-74
2021/03/15 15:04:10;;;;;;;1.50;1.40;;;;;;;;;;4897101;29;20182;-73
2021/03/15 15:07:17;;;;;;;1.40;1.13;;;;;;;;;;4889888;29;20193;-73
2021/03/15 15:10:27;;;;;;;1.30;1.20;;;;;;;;;;4906001;29;20221;-73
2021/03/15 15:13:36;;;;;;;1.40;1.30;;;;;;;;;;4915831;29;20193;-73
2021/03/15 15:16:48;;;;;;;1.77;1.50;;;;;;;;;;4898988;29;20193;-74
2021/03/15 15:19:52;;;;;;;1.07;1.00;;;;;;;;;;4896952;29;20194;-73
2021/03/15 15:23:08;;;;;;;1.87;1.50;;;;;;;;;;4897527;29;20201;-73
2021/03/15 15:26:12;;;;;;;1.20;1.10;;;;;;;;;;4905356;29;20220;-73
2021/03/15 15:29:16;;;;;;;1.40;1.20;;;;;;;;;;4914907;29;20200;-73
2021/03/15 15:32:20;;;;;;;1.20;1.10;;;;;;;;;;4896783;29;20225;-73
2021/03/15 15:35:25;;;;;;;1.30;1.20;;;;;;;;;;4897818;29;20178;-73
2021/03/15 15:38:30;;;;;;;1.37;1.13;;;;;;;;;;4904148;29;20660;-74
2021/03/15 15:41:34;;;;;;;0.80;0.80;;;;;;;;;;4916897;29;20557;-73
2021/03/15 15:44:38;;;;;;;1.20;0.90;;;;;;;;;;4901064;29;20185;-73
2021/03/15 15:47:43;;;;;;;1.00;0.90;;;;;;;;;;4900778;29;20186;-73
2021/03/15 15:50:48;;;;;;;1.23;1.00;;;;;;;;;;4908047;29;20553;-73
2021/03/15 15:53:55;;;;;;;1.80;1.10;;;;;;;;;;4899836;29;20206;-73
2021/03/15 15:56:59;;;;;;;2.97;2.00;;;;;;;;;;4911194;29;20613;-73
2021/03/15 16:00:08;;;;;;;1.00;0.80;;;;;;;;;;4899625;29;20597;-73
2021/03/15 16:03:16;;;;;;;1.17;0.90;;;;;;;;;;4900549;29;20559;-73
2021/03/15 16:06:20;;;;;;;0.70;0.70;;;;;;;;;;4914841;29;20625;-73
2021/03/15 16:09:36;;;;;;;1.00;0.70;;;;;;;;;;4912898;29;20598;-74
2021/03/15 16:12:44;;;;;;;1.10;1.00;;;;;;;;;;4900496;29;20899;-73
2021/03/15 16:15:49;;;;;;;2.83;1.87;;;;;;;;;;4901442;29;20597;-73
2021/03/15 16:18:54;;;;;;;1.30;0.97;;;;;;;;;;4909325;29;20600;-73
2021/03/15 16:21:58;;;;;;;4.07;2.40;;;;;;;;;;4905471;29;20649;-74
2021/03/15 16:25:07;;;;;;;18.63;7.10;;;;;;;;;;4900338;29;20550;-73
2021/03/15 16:28:11;;;;;;;11.17;4.00;;;;;;;;;;4899393;29;20586;-74
2021/03/15 16:31:21;;;;;;;31.03;11.40;;;;;;;;;;4908313;29;21009;-73
2021/03/15 16:34:27;;;;;;;7.37;2.93;;;;;;;;;;4899977;29;20628;-74
2021/03/15 16:37:30;;;;;;;5.43;2.43;;;;;;;;;;4908664;29;20593;-73
2021/03/15 16:40:35;;;;;;;21.90;9.73;;;;;;;;;;4911569;29;20645;-73
2021/03/15 16:43:39;;;;;;;5.37;2.70;;;;;;;;;;4905358;29;20597;-73
2021/03/15 16:46:43;;;;;;;9.60;4.57;;;;;;;;;;4917711;29;20593;-74
2021/03/15 16:49:48;;;;;;;8.87;4.63;;;;;;;;;;4917964;29;20549;-73
2021/03/15 16:52:52;;;;;;;18.33;10.80;;;;;;;;;;4902040;29;20923;-74
2021/03/15 16:55:57;;;;;;;97.83;49.40;;;;;;;;;;4910101;29;20611;-73
2021/03/15 16:59:02;;;;;;;45.63;27.03;;;;;;;;;;4914130;29;20608;-74
2021/03/15 17:02:07;;;;;;;24.17;15.27;;;;;;;;;;4901184;29;20657;-74
2021/03/15 17:05:13;;;;;;;17.50;10.10;;;;;;;;;;4903937;29;20960;-74
2021/03/15 17:08:17;;;;;;;7.37;5.50;;;;;;;;;;4910910;29;20592;-74
2021/03/15 17:11:21;;;;;;;5.30;4.80;;;;;;;;;;4918431;29;20625;-73
2021/03/15 17:14:25;;;;;;;4.10;2.70;;;;;;;;;;4918156;29;20604;-73
2021/03/15 17:17:29;;;;;;;1.90;1.80;;;;;;;;;;4912942;29;21198;-73
2021/03/15 17:20:33;;;;;;;2.47;2.20;;;;;;;;;;4909171;29;20680;-73
2021/03/15 17:23:37;;;;;;;3.53;2.63;;;;;;;;;;4898870;29;20594;-73
2021/03/15 17:26:42;;;;;;;2.00;1.80;;;;;;;;;;4898255;29;20966;-73
2021/03/15 17:29:46;;;;;;;9.33;8.13;;;;;;;;;;4908957;29;20597;-74
2021/03/15 17:32:51;;;;;;;4.57;3.83;;;;;;;;;;4902882;29;20593;-73
2021/03/15 17:35:55;;;;;;;2.93;2.73;;;;;;;;;;4909066;29;20601;-74
2021/03/15 17:39:00;;;;;;;3.20;2.43;;;;;;;;;;4898594;29;21160;-74
2021/03/15 17:42:04;;;;;;;3.13;2.83;;;;;;;;;;4910742;29;20657;-74
2021/03/15 17:45:09;;;;;;;5.50;2.90;;;;;;;;;;4916467;29;20553;-74
2021/03/15 17:48:13;;;;;;;4.27;3.30;;;;;;;;;;4898348;29;20621;-73
2021/03/15 17:51:17;;;;;;;3.47;3.17;;;;;;;;;;4887424;29;20621;-74
2021/03/15 17:54:21;;;;;;;5.67;4.03;;;;;;;;;;4910831;29;20593;-74
2021/03/15 17:57:25;;;;;;;7.40;4.87;;;;;;;;;;4911416;29;20581;-73
2021/03/15 18:00:30;;;;;;;8.83;5.87;;;;;;;;;;4898979;29;20657;-74
2021/03/15 18:03:34;;;;;;;5.93;3.93;;;;;;;;;;4914410;29;20934;-74
2021/03/15 18:06:38;;;;;;;6.40;4.20;;;;;;;;;;4913818;29;20664;-74
2021/03/15 18:09:42;;;;;;;8.30;6.00;;;;;;;;;;4909036;29;20978;-72
2021/03/15 18:12:47;;;;;;;15.53;10.60;;;;;;;;;;4916434;29;20558;-72
2021/03/15 18:15:51;;;;;;;10.80;8.90;;;;;;;;;;4916931;29;20608;-71
2021/03/15 18:18:55;;;;;;;8.87;7.10;;;;;;;;;;4899305;29;20594;-72
2021/03/15 18:21:59;;;;;;;20.03;12.83;;;;;;;;;;4897758;29;20645;-72
2021/03/15 18:25:04;;;;;;;32.03;19.87;;;;;;;;;;4899555;29;21172;-72
2021/03/15 18:28:08;;;;;;;18.20;9.93;;;;;;;;;;4909502;29;21299;-71
2021/03/15 18:31:14;;;;;;;16.00;9.30;;;;;;;;;;4904061;29;20644;-72
2021/03/15 18:34:18;;;;;;;9.47;6.63;;;;;;;;;;4916486;29;20874;-71
2021/03/15 18:37:23;;;;;;;10.67;7.40;;;;;;;;;;4914145;29;21143;-72
2021/03/15 18:40:28;;;;;;;5.77;4.77;;;;;;;;;;4902456;29;20661;-72
2021/03/15 18:43:32;;;;;;;5.43;3.83;;;;;;;;;;4897959;29;20562;-72
2021/03/15 18:46:36;;;;;;;4.03;3.00;;;;;;;;;;4904776;29;20629;-72
2021/03/15 18:49:40;;;;;;;5.80;4.03;;;;;;;;;;4898353;29;20542;-72
2021/03/15 18:52:44;;;;;;;4.43;3.20;;;;;;;;;;4896942;29;20601;-72